Time;durP1;ratioP1;P1;durP2;ratioP2;P2;SDS_P1;SDS_P2;PMS_P1;PMS_P2;Temp;Humidity;BMP_temperature;BMP_pressure;BME280_temperature;BME280_humidity;BME280_pressure;Samples;Min_cycle;Max_cycle;Signal;HPM_P1;HPM_P2
2023/02/19 00:00:01;;;;;;;;;;;;;;;9.92;100.00;101700.13;10499498;28;19924;-67
2023/02/19 00:05:04;;;;;;;;;;;;;;;9.85;100.00;101688.16;10498853;28;20371;-68
2023/02/19 00:10:06;;;;;;;;;;;;;;;9.89;100.00;101702.00;10498806;28;20386;-69
2023/02/19 00:15:08;;;;;;;;;;;;;;;9.73;100.00;101697.34;10499365;28;19924;-67
2023/02/19 00:20:11;;;;;;;;;;;;;;;9.75;100.00;101694.69;10481452;28;19924;-68
2023/02/19 00:25:13;;;;;;;;;;;;;;;9.71;100.00;101700.97;10498368;28;19925;-68
2023/02/19 00:30:15;;;;;;;;;;;;;;;9.72;100.00;101698.28;10498783;28;19925;-68
2023/02/19 00:35:17;;;;;;;;;;;;;;;9.63;100.00;101701.25;10480469;28;20379;-67
2023/02/19 00:40:19;;;;;;;;;;;;;;;9.61;100.00;101708.31;10498198;28;20390;-69
2023/02/19 00:45:22;;;;;;;;;;;;;;;9.60;100.00;101706.59;10498021;28;20322;-68
2023/02/19 00:50:24;;;;;;;;;;;;;;;9.51;100.00;101705.19;10498688;28;19951;-68
2023/02/19 00:55:26;;;;;;;;;;;;;;;9.46;100.00;101705.38;10498329;28;19929;-68
2023/02/19 01:00:28;;;;;;;;;;;;;;;9.47;100.00;101709.69;10497834;28;19932;-68
2023/02/19 01:05:30;;;;;;;;;;;;;;;9.36;100.00;101716.22;10483959;28;19929;-68
2023/02/19 01:10:33;;;;;;;;;;;;;;;9.38;100.00;101712.66;10488592;28;19932;-67
2023/02/19 01:15:35;;;;;;;;;;;;;;;9.29;100.00;101719.06;10505548;28;20391;-67
2023/02/19 01:20:38;;;;;;;;;;;;;;;9.29;100.00;101718.22;10488243;28;19928;-68
2023/02/19 01:25:41;;;;;;;;;;;;;;;9.37;100.00;101721.41;10505055;28;20384;-68
2023/02/19 01:30:43;;;;;;;;;;;;;;;9.30;100.00;101726.00;10487218;28;19931;-68
2023/02/19 01:35:45;;;;;;;;;;;;;;;9.28;100.00;101727.00;10505259;28;19924;-68
2023/02/19 01:40:55;;;;;;;;;;;;;;;9.26;100.00;101736.63;10504569;28;20359;-68
2023/02/19 01:45:57;;;;;;;;;;;;;;;9.24;100.00;101749.75;10487304;28;19932;-67
2023/02/19 01:51:02;;;;;;;;;;;;;;;9.22;100.00;101730.66;10504142;28;20371;-68
2023/02/19 01:56:04;;;;;;;;;;;;;;;9.20;100.00;101742.09;10486905;28;19933;-66
2023/02/19 02:01:07;;;;;;;;;;;;;;;9.32;100.00;101733.78;10503908;28;19974;-67
2023/02/19 02:06:18;;;;;;;;;;;;;;;9.29;100.00;101729.53;10486474;28;19924;-67
2023/02/19 02:11:20;;;;;;;;;;;;;;;9.22;100.00;101735.88;10503427;28;19933;-67
2023/02/19 02:16:22;;;;;;;;;;;;;;;9.18;100.00;101733.44;10484653;28;20326;-67
2023/02/19 02:21:35;;;;;;;;;;;;;;;9.14;100.00;101737.09;10503742;28;19932;-68
2023/02/19 02:26:44;;;;;;;;;;;;;;;9.05;100.00;101739.13;10485691;28;19931;-67
2023/02/19 02:31:48;;;;;;;;;;;;;;;9.08;100.00;101741.63;10503292;28;19924;-67
2023/02/19 02:36:52;;;;;;;;;;;;;;;9.06;100.00;101745.19;10485442;28;19928;-67
2023/02/19 02:58:10;;;;;;;;;;;;;;;8.97;100.00;101762.03;10486945;28;19925;-67
2023/02/19 03:03:12;;;;;;;;;;;;;;;8.90;100.00;101753.56;10484354;28;19924;-66
2023/02/19 03:08:15;;;;;;;;;;;;;;;8.98;100.00;101758.53;10483953;28;19931;-67
2023/02/19 03:29:31;;;;;;;;;;;;;;;8.95;100.00;101792.59;10484188;28;19924;-67
2023/02/19 03:34:37;;;;;;;;;;;;;;;8.97;100.00;101796.00;10482804;28;19931;-67
2023/02/19 03:39:45;;;;;;;;;;;;;;;8.98;100.00;101792.50;10482727;28;19924;-67
2023/02/19 03:44:47;;;;;;;;;;;;;;;9.02;100.00;101804.53;10500219;28;19930;-68
2023/02/19 03:49:55;;;;;;;;;;;;;;;8.82;100.00;101804.38;10499639;28;20284;-67
2023/02/19 03:54:58;;;;;;;;;;;;;;;8.91;100.00;101810.13;10499291;28;20387;-67
2023/02/19 04:00:03;;;;;;;;;;;;;;;8.91;100.00;101814.50;10499181;28;19928;-68
2023/02/19 04:05:07;;;;;;;;;;;;;;;8.85;100.00;101828.63;10498926;28;20295;-68
2023/02/19 04:10:09;;;;;;;;;;;;;;;8.97;100.00;101831.72;10481141;28;20330;-68
2023/02/19 04:15:12;;;;;;;;;;;;;;;8.91;100.00;101838.88;10480989;28;19928;-67
2023/02/19 04:20:14;;;;;;;;;;;;;;;8.93;100.00;101831.81;10480958;28;20378;-67
2023/02/19 04:25:17;;;;;;;;;;;;;;;9.02;100.00;101837.66;10499111;28;19925;-68
2023/02/19 04:30:20;;;;;;;;;;;;;;;9.04;100.00;101856.72;10498402;28;20264;-67
2023/02/19 04:35:22;;;;;;;;;;;;;;;9.06;100.00;101849.69;10480611;28;20260;-68
2023/02/19 04:40:24;;;;;;;;;;;;;;;9.02;100.00;101855.94;10497790;28;19928;-68
2023/02/19 04:45:26;;;;;;;;;;;;;;;9.01;100.00;101862.91;10480880;28;19924;-67
2023/02/19 04:50:28;;;;;;;;;;;;;;;8.95;100.00;101875.34;10498533;28;19924;-67
2023/02/19 04:55:31;;;;;;;;;;;;;;;9.07;100.00;101880.13;10498542;28;19928;-68
2023/02/19 05:00:33;;;;;;;;;;;;;;;9.00;100.00;101887.31;10497946;28;19928;-68
2023/02/19 05:05:35;;;;;;;;;;;;;;;9.11;100.00;101890.44;10497608;28;19954;-68
2023/02/19 05:10:37;;;;;;;;;;;;;;;9.07;100.00;101903.66;10497583;28;20372;-68
2023/02/19 05:15:40;;;;;;;;;;;;;;;9.04;100.00;101911.59;10480350;28;19924;-68
2023/02/19 05:20:42;;;;;;;;;;;;;;;8.93;100.00;101918.00;10498004;28;19929;-67
2023/02/19 05:25:44;;;;;;;;;;;;;;;9.06;100.00;101921.09;10497227;28;20371;-67
2023/02/19 05:30:50;;;;;;;;;;;;;;;9.05;100.00;101919.38;10497811;28;19931;-68
2023/02/19 05:35:53;;;;;;;;;;;;;;;9.02;100.00;101927.31;10479389;28;19947;-68
2023/02/19 05:40:55;;;;;;;;;;;;;;;9.05;100.00;101939.44;10497653;28;19924;-68
2023/02/19 05:45:57;;;;;;;;;;;;;;;8.97;100.00;101938.81;10497454;28;19928;-68
2023/02/19 05:51:07;;;;;;;;;;;;;;;9.00;100.00;101954.41;10497716;28;20276;-68
2023/02/19 05:56:25;;;;;;;;;;;;;;;8.95;100.00;101944.09;10486931;28;20011;-68
2023/02/19 06:01:27;;;;;;;;;;;;;;;8.98;100.00;101943.13;10503548;28;20376;-68
2023/02/19 06:06:30;;;;;;;;;;;;;;;9.01;100.00;101945.63;10503572;28;20011;-68
2023/02/19 06:11:32;;;;;;;;;;;;;;;8.96;100.00;101953.66;10486298;28;19928;-67
2023/02/19 06:16:34;;;;;;;;;;;;;;;8.86;100.00;101960.03;10485549;28;19947;-68
2023/02/19 06:21:36;;;;;;;;;;;;;;;8.75;100.00;101963.00;10503068;28;20283;-69
2023/02/19 06:26:39;;;;;;;;;;;;;;;8.85;100.00;101958.34;10503457;28;19931;-68
2023/02/19 06:31:41;;;;;;;;;;;;;;;9.00;100.00;101975.28;10503361;28;19981;-68
2023/02/19 06:36:43;;;;;;;;;;;;;;;8.85;100.00;101974.88;10503143;28;19924;-69
2023/02/19 06:41:46;;;;;;;;;;;;;;;8.86;100.00;101992.25;10502945;28;19970;-68
2023/02/19 06:46:48;;;;;;;;;;;;;;;8.94;100.00;102002.44;10502656;28;19939;-68
2023/02/19 06:51:50;;;;;;;;;;;;;;;9.01;100.00;102003.97;10501874;28;20381;-69
2023/02/19 06:56:52;;;;;;;;;;;;;;;8.98;100.00;102003.19;10501773;28;19925;-68
2023/02/19 07:01:54;;;;;;;;;;;;;;;8.90;100.00;102001.69;10500948;28;19980;-69
2023/02/19 07:06:59;;;;;;;;;;;;;;;8.81;100.00;102012.44;10501765;28;19924;-68
2023/02/19 07:17:09;;;;;;;;;;;;;;;8.81;100.00;102015.06;10294743;28;19926;-67
2023/02/19 07:22:11;;;;;;;;;;;;;;;8.90;100.00;102025.19;10297079;28;19926;-67
2023/02/19 07:27:13;;;;;;;;;;;;;;;8.92;100.00;102039.06;10295002;28;19926;-68
2023/02/19 07:32:16;;;;;;;;;;;;;;;8.89;100.00;102040.91;10294920;28;20271;-67
2023/02/19 07:37:18;;;;;;;;;;;;;;;8.86;100.00;102061.88;10295900;28;19933;-67
2023/02/19 07:42:20;;;;;;;;;;;;;;;8.93;100.00;102063.44;10295707;28;19949;-67
2023/02/19 07:47:23;;;;;;;;;;;;;;;9.00;100.00;102066.72;10296059;28;19926;-67
2023/02/19 07:52:25;;;;;;;;;;;;;;;8.99;100.00;102096.34;10295968;28;19926;-67
2023/02/19 07:57:28;;;;;;;;;;;;;;;8.72;100.00;102102.34;10295750;28;19926;-67
2023/02/19 08:07:51;;;;;;;;;;;;;;;8.86;100.00;102120.22;10295334;28;19930;-67
2023/02/19 08:18:15;;;;;;;;;;;;;;;8.91;100.00;102120.09;10294024;28;19977;-67
2023/02/19 08:23:19;;;;;;;;;;;;;;;8.96;100.00;102125.16;10293789;28;19926;-67
2023/02/19 08:28:21;;;;;;;;;;;;;;;9.06;100.00;102124.00;10293655;28;19997;-67
2023/02/19 08:33:24;;;;;;;;;;;;;;;9.37;100.00;102130.91;10294760;28;19933;-68
2023/02/19 08:38:26;;;;;;;;;;;;;;;9.32;100.00;102119.75;10294662;28;19930;-67
2023/02/19 08:43:28;;;;;;;;;;;;;;;9.59;100.00;102129.31;10293911;28;19926;-68
2023/02/19 08:48:30;;;;;;;;;;;;;;;9.53;100.00;102131.28;10293712;28;19990;-67
2023/02/19 08:53:33;;;;;;;;;;;;;;;9.49;100.00;102144.44;10294362;28;19933;-68
2023/02/19 08:58:36;;;;;;;;;;;;;;;9.35;100.00;102158.88;10293022;28;19926;-68
2023/02/19 09:03:38;;;;;;;;;;;;;;;9.60;100.00;102169.41;10291274;28;19933;-67
2023/02/19 09:08:41;;;;;;;;;;;;;;;9.39;100.00;102168.31;10292882;28;19926;-66
2023/02/19 09:13:43;;;;;;;;;;;;;;;9.41;100.00;102163.88;10290934;28;19953;-66
2023/02/19 09:18:45;;;;;;;;;;;;;;;9.37;100.00;102159.66;10292291;28;19927;-66
2023/02/19 09:23:48;;;;;;;;;;;;;;;9.61;100.00;102156.28;10291944;28;20385;-67
2023/02/19 09:28:50;;;;;;;;;;;;;;;10.63;100.00;102165.16;10298311;28;20440;-68
2023/02/19 09:33:52;;;;;;;;;;;;;;;9.88;100.00;102177.22;10300723;28;20321;-67
2023/02/19 09:38:54;;;;;;;;;;;;;;;9.99;100.00;102187.34;10300895;28;19926;-67
2023/02/19 09:43:57;;;;;;;;;;;;;;;9.74;100.00;102200.38;10283166;28;20305;-68
2023/02/19 09:49:06;;;;;;;;;;;;;;;9.96;100.00;102217.06;10298645;28;19926;-67
2023/02/19 09:54:12;;;;;;;;;;;;;;;9.93;100.00;102234.63;10298293;28;19930;-65
2023/02/19 09:59:35;;;;;;;;;;;;;;;10.66;100.00;102240.97;10298034;28;19933;-66
2023/02/19 10:04:38;;;;;;;;;;;;;;;10.57;100.00;102235.19;10297391;28;19926;-66
2023/02/19 10:09:40;;;;;;;;;;;;;;;10.14;100.00;102249.66;10298405;28;19926;-66
2023/02/19 10:14:47;;;;;;;;;;;;;;;10.92;100.00;102269.75;10299250;28;19929;-66
2023/02/19 10:19:50;;;;;;;;;;;;;;;10.66;100.00;102265.44;10297692;28;19933;-67
2023/02/19 10:24:53;;;;;;;;;;;;;;;10.77;100.00;102276.38;10299317;28;19980;-66
2023/02/19 10:29:55;;;;;;;;;;;;;;;10.56;100.00;102277.13;10298125;28;19926;-67
2023/02/19 10:35:11;;;;;;;;;;;;;;;10.69;100.00;102283.66;10297144;28;20335;-67
2023/02/19 10:40:14;;;;;;;;;;;;;;;10.88;100.00;102288.28;10296938;28;19934;-66
2023/02/19 10:45:18;;;;;;;;;;;;;;;10.80;100.00;102299.00;10298144;28;20287;-67
2023/02/19 10:50:36;;;;;;;;;;;;;;;10.41;100.00;102307.28;10297158;28;19930;-66
2023/02/19 10:55:40;;;;;;;;;;;;;;;10.56;100.00;102311.19;10298820;28;19953;-66
2023/02/19 11:00:42;;;;;;;;;;;;;;;10.49;100.00;102305.28;10296403;28;20016;-67
2023/02/19 11:05:54;;;;;;;;;;;;;;;10.29;100.00;102313.75;10297074;28;19930;-66
2023/02/19 11:10:56;;;;;;;;;;;;;;;9.97;100.00;102302.53;10296420;28;19953;-66
2023/02/19 11:15:58;;;;;;;;;;;;;;;10.25;100.00;102292.94;10296638;28;19954;-66
2023/02/19 11:21:02;;;;;;;;;;;;;;;10.49;100.00;102265.13;10296076;28;19930;-67
2023/02/19 11:26:05;;;;;;;;;;;;;;;10.16;100.00;102271.38;10295133;28;19927;-67
2023/02/19 11:31:13;;;;;;;;;;;;;;;10.30;100.00;102268.31;10295049;28;20010;-67
2023/02/19 11:36:27;;;;;;;;;;;;;;;10.48;100.00;102271.28;10296608;28;19958;-67
2023/02/19 11:41:54;;;;;;;;;;;;;;;10.76;100.00;102273.84;10296418;28;19930;-67
2023/02/19 11:47:02;;;;;;;;;;;;;;;12.18;100.00;102272.00;10296245;28;19926;-69
2023/02/19 11:52:17;;;;;;;;;;;;;;;11.60;100.00;102287.38;10310132;28;19927;-69
2023/02/19 11:57:19;;;;;;;;;;;;;;;11.66;100.00;102303.75;10294839;28;19926;-69
2023/02/19 12:02:27;;;;;;;;;;;;;;;10.96;100.00;102297.56;10295237;28;20349;-70
2023/02/19 12:07:38;;;;;;;;;;;;;;;11.11;100.00;102295.28;10294903;28;20385;-70
2023/02/19 12:12:59;;;;;;;;;;;;;;;10.80;100.00;102296.38;10294705;28;19926;-70
2023/02/19 12:18:17;;;;;;;;;;;;;;;11.41;100.00;102292.47;10284397;28;19926;-70
2023/02/19 12:23:19;;;;;;;;;;;;;;;11.47;100.00;102294.88;10295068;28;19930;-70
2023/02/19 12:28:40;;;;;;;;;;;;;;;10.93;100.00;102302.06;10294827;28;19926;-70
2023/02/19 12:33:46;;;;;;;;;;;;;;;10.20;100.00;102301.81;10293043;28;19953;-70
2023/02/19 12:38:50;;;;;;;;;;;;;;;10.37;100.00;102298.69;10294103;28;19933;-70
2023/02/19 12:44:00;;;;;;;;;;;;;;;10.05;100.00;102294.41;10293487;28;19951;-70
2023/02/19 12:49:02;;;;;;;;;;;;;;;10.48;100.00;102293.09;10292684;28;20374;-70
2023/02/19 12:54:10;;;;;;;;;;;;;;;10.96;100.00;102312.41;10294451;28;19973;-70
2023/02/19 12:59:15;;;;;;;;;;;;;;;10.57;100.00;102316.38;10294328;28;19926;-70
2023/02/19 13:04:23;;;;;;;;;;;;;;;10.33;100.00;102318.00;10301095;28;19930;-70
2023/02/19 13:09:27;;;;;;;;;;;;;;;10.30;100.00;102325.06;10301525;28;20393;-70
2023/02/19 13:14:29;;;;;;;;;;;;;;;10.03;100.00;102323.25;10302005;28;19973;-70
2023/02/19 13:19:31;;;;;;;;;;;;;;;9.99;99.11;102323.41;10301153;28;19926;-70
2023/02/19 13:24:34;;;;;;;;;;;;;;;10.13;99.26;102329.06;10300593;28;19933;-70
2023/02/19 13:29:36;;;;;;;;;;;;;;;10.26;100.00;102344.41;10301385;28;19973;-70
2023/02/19 13:34:47;;;;;;;;;;;;;;;10.25;98.92;102361.00;10301522;28;19926;-70
2023/02/19 13:39:50;;;;;;;;;;;;;;;10.32;100.00;102355.56;10300469;28;20342;-70
2023/02/19 13:44:52;;;;;;;;;;;;;;;10.58;99.90;102370.44;10297833;28;19981;-70
2023/02/19 13:50:04;;;;;;;;;;;;;;;10.41;100.00;102378.00;10299916;28;19933;-70
2023/02/19 13:55:25;;;;;;;;;;;;;;;10.89;98.31;102363.31;10299752;28;19929;-70
2023/02/19 14:00:46;;;;;;;;;;;;;;;10.07;99.15;102362.41;10298948;28;20345;-70
2023/02/19 14:06:00;;;;;;;;;;;;;;;10.18;99.75;102365.56;10314280;28;19926;-70
2023/02/19 14:11:03;;;;;;;;;;;;;;;10.04;98.40;102381.69;10296313;28;19930;-70
2023/02/19 14:16:10;;;;;;;;;;;;;;;9.83;100.00;102391.03;10311274;28;19926;-70
2023/02/19 14:21:14;;;;;;;;;;;;;;;9.90;100.00;102400.44;10314427;28;19926;-70
2023/02/19 14:26:16;;;;;;;;;;;;;;;10.00;100.00;102404.50;10299318;28;19927;-70
2023/02/19 14:31:28;;;;;;;;;;;;;;;9.77;100.00;102413.00;10298540;28;20334;-69
2023/02/19 14:36:30;;;;;;;;;;;;;;;9.48;100.00;102417.28;10313933;28;19926;-69
2023/02/19 14:41:35;;;;;;;;;;;;;;;9.25;100.00;102414.41;10298823;28;19933;-70
2023/02/19 14:46:38;;;;;;;;;;;;;;;9.54;100.00;102405.78;10313704;28;19957;-70
2023/02/19 14:51:43;;;;;;;;;;;;;;;9.39;100.00;102391.34;10313296;28;19927;-70
2023/02/19 14:56:49;;;;;;;;;;;;;;;9.24;100.00;102400.47;10313028;28;19926;-69
2023/02/19 15:01:55;;;;;;;;;;;;;;;9.14;100.00;102391.16;10298028;28;19927;-69
2023/02/19 15:06:58;;;;;;;;;;;;;;;8.69;100.00;102362.66;10297123;28;19930;-69
2023/02/19 15:12:01;;;;;;;;;;;;;;;9.29;100.00;102356.75;10297024;28;20290;-70
2023/02/19 15:17:04;;;;;;;;;;;;;;;9.17;100.00;102356.25;10296883;28;19973;-69
2023/02/19 15:22:06;;;;;;;;;;;;;;;9.49;100.00;102358.84;10311481;28;20378;-70
2023/02/19 15:27:12;;;;;;;;;;;;;;;9.33;100.00;102361.91;10311871;28;19973;-69
2023/02/19 15:32:21;;;;;;;;;;;;;;;9.42;100.00;102387.81;10311813;28;19926;-69
2023/02/19 15:37:23;;;;;;;;;;;;;;;9.47;100.00;102391.16;10311510;28;19926;-70
2023/02/19 15:42:31;;;;;;;;;;;;;;;9.37;100.00;102408.00;10309847;28;21504;-69
2023/02/19 15:47:35;;;;;;;;;;;;;;;9.42;100.00;102420.03;10310587;28;20444;-69
2023/02/19 15:52:40;;;;;;;;;;;;;;;8.92;100.00;102430.88;10310409;28;19930;-69
2023/02/19 15:57:43;;;;;;;;;;;;;;;8.62;100.00;102449.88;10295961;28;19927;-69
2023/02/19 16:02:45;;;;;;;;;;;;;;;8.36;100.00;102459.13;10310051;28;19926;-69
2023/02/19 16:08:03;;;;;;;;;;;;;;;7.96;100.00;102467.78;10309777;28;19952;-69
2023/02/19 16:13:08;;;;;;;;;;;;;;;8.06;100.00;102477.13;10310348;28;19926;-69
2023/02/19 16:18:10;;;;;;;;;;;;;;;7.87;100.00;102486.19;10313169;28;19926;-69
2023/02/19 16:23:13;;;;;;;;;;;;;;;8.00;100.00;102493.78;10309478;28;19926;-69
2023/02/19 16:28:20;;;;;;;;;;;;;;;8.00;100.00;102498.09;10294390;28;19926;-69
2023/02/19 16:33:35;;;;;;;;;;;;;;;8.10;100.00;102504.88;10309165;28;19926;-69
2023/02/19 16:38:38;;;;;;;;;;;;;;;7.93;100.00;102514.78;10294258;28;19930;-69
2023/02/19 16:43:41;;;;;;;;;;;;;;;7.43;100.00;102519.97;10292877;28;19927;-69
2023/02/19 16:48:43;;;;;;;;;;;;;;;7.45;100.00;102531.28;10308694;28;20282;-69
2023/02/19 16:53:45;;;;;;;;;;;;;;;7.47;100.00;102526.03;10293846;28;19925;-69
2023/02/19 16:58:48;;;;;;;;;;;;;;;7.01;100.00;102525.88;10293724;28;20341;-69
2023/02/19 17:03:50;;;;;;;;;;;;;;;7.49;100.00;102521.66;10309162;28;19981;-69
2023/02/19 17:08:53;;;;;;;;;;;;;;;7.49;100.00;102525.09;10293091;28;19932;-69
2023/02/19 17:13:55;;;;;;;;;;;;;;;7.56;100.00;102534.53;10308230;28;19926;-69
2023/02/19 17:18:57;;;;;;;;;;;;;;;7.47;100.00;102546.88;10293297;28;19930;-69
2023/02/19 17:24:00;;;;;;;;;;;;;;;7.21;100.00;102546.41;10293331;28;20332;-69
2023/02/19 17:29:03;;;;;;;;;;;;;;;7.04;100.00;102543.19;10293918;28;19927;-69
2023/02/19 17:34:05;;;;;;;;;;;;;;;7.28;100.00;102551.50;10292571;28;19934;-69
2023/02/19 17:39:13;;;;;;;;;;;;;;;7.15;100.00;102546.50;10293604;28;19930;-69
2023/02/19 17:44:16;;;;;;;;;;;;;;;7.47;100.00;102549.50;10291856;28;19933;-69
2023/02/19 17:49:18;;;;;;;;;;;;;;;7.10;100.00;102548.31;10298978;28;19926;-69
2023/02/19 17:54:20;;;;;;;;;;;;;;;7.12;100.00;102556.09;10300449;28;19926;-69
2023/02/19 17:59:22;;;;;;;;;;;;;;;7.32;100.00;102548.84;10299744;28;19926;-69
2023/02/19 18:04:25;;;;;;;;;;;;;;;7.27;100.00;102562.84;10299586;28;19973;-69
2023/02/19 18:09:27;;;;;;;;;;;;;;;7.19;100.00;102558.56;10298173;28;19930;-69
2023/02/19 18:14:30;;;;;;;;;;;;;;;7.10;100.00;102578.72;10299180;28;19992;-69
2023/02/19 18:19:32;;;;;;;;;;;;;;;7.25;100.00;102578.47;10298905;28;20071;-69
2023/02/19 18:24:34;;;;;;;;;;;;;;;7.40;100.00;102567.81;10299466;28;19933;-69
2023/02/19 18:29:36;;;;;;;;;;;;;;;7.13;100.00;102573.44;10298601;28;19926;-70
2023/02/19 18:34:39;;;;;;;;;;;;;;;6.99;100.00;102576.25;10298443;28;20321;-69
2023/02/19 18:39:43;;;;;;;;;;;;;;;6.96;100.00;102584.09;10298259;28;20366;-70
2023/02/19 18:44:48;;;;;;;;;;;;;;;6.99;100.00;102571.91;10298085;28;20393;-69
2023/02/19 18:49:51;;;;;;;;;;;;;;;7.02;100.00;102568.38;10298449;28;19933;-69
2023/02/19 18:54:54;;;;;;;;;;;;;;;7.13;100.00;102569.09;10297249;28;19926;-69
2023/02/19 18:59:56;;;;;;;;;;;;;;;6.88;100.00;102577.25;10296488;28;19954;-69
2023/02/19 19:04:58;;;;;;;;;;;;;;;7.16;100.00;102574.28;10298054;28;19930;-69
2023/02/19 19:10:00;;;;;;;;;;;;;;;7.05;100.00;102568.34;10297059;28;20262;-69
2023/02/19 19:15:03;;;;;;;;;;;;;;;6.77;100.00;102571.31;10297610;28;19930;-69
2023/02/19 19:20:05;;;;;;;;;;;;;;;6.84;100.00;102578.19;10297372;28;19933;-69
2023/02/19 19:25:08;;;;;;;;;;;;;;;6.49;100.00;102576.88;10297207;28;19937;-69
2023/02/19 19:30:10;;;;;;;;;;;;;;;6.51;100.00;102569.91;10427568;22;20334;-69
2023/02/19 19:35:14;;;;;;;;;;;;;;;6.83;100.00;102573.00;10499844;28;19932;-70
2023/02/19 19:40:16;;;;;;;;;;;;;;;6.77;100.00;102573.06;10499571;28;19951;-69
2023/02/19 19:45:19;;;;;;;;;;;;;;;6.58;100.00;102570.69;10482849;28;19935;-69
2023/02/19 19:50:21;;;;;;;;;;;;;;;6.43;100.00;102589.09;10500212;28;19930;-69
2023/02/19 19:55:23;;;;;;;;;;;;;;;6.35;100.00;102593.53;10499464;28;20260;-69
2023/02/19 20:00:26;;;;;;;;;;;;;;;5.99;100.00;102590.44;10499922;28;19924;-69
2023/02/19 20:05:28;;;;;;;;;;;;;;;6.06;100.00;102608.53;10499702;28;19924;-70
2023/02/19 20:10:30;;;;;;;;;;;;;;;6.29;100.00;102607.47;10498102;28;19931;-69
2023/02/19 20:15:33;;;;;;;;;;;;;;;6.06;100.00;102603.34;10498349;28;19924;-69
2023/02/19 20:20:35;;;;;;;;;;;;;;;5.89;100.00;102598.28;10498745;28;19924;-69
2023/02/19 20:25:38;;;;;;;;;;;;;;;5.92;100.00;102607.78;10498613;28;19924;-69
2023/02/19 20:30:40;;;;;;;;;;;;;;;5.62;100.00;102614.97;10498241;28;20294;-69
2023/02/19 20:35:43;;;;;;;;;;;;;;;5.84;100.00;102594.84;10498993;28;19924;-69
2023/02/19 20:40:45;;;;;;;;;;;;;;;5.40;100.00;102599.53;10498227;28;20375;-69
2023/02/19 20:45:47;;;;;;;;;;;;;;;5.52;100.00;102595.13;10498833;28;19974;-69
2023/02/19 20:50:49;;;;;;;;;;;;;;;5.67;100.00;102594.16;10498104;28;19928;-70
2023/02/19 20:55:51;;;;;;;;;;;;;;;5.44;100.00;102609.91;10497998;28;20256;-69
2023/02/19 21:00:54;;;;;;;;;;;;;;;5.58;100.00;102619.31;10498571;28;19925;-69
2023/02/19 21:05:56;;;;;;;;;;;;;;;5.66;100.00;102623.59;10498471;28;19931;-69
2023/02/19 21:10:59;;;;;;;;;;;;;;;5.60;100.00;102621.91;10497668;28;20375;-69
2023/02/19 21:16:01;;;;;;;;;;;;;;;5.44;100.00;102608.16;10497729;28;19929;-69
2023/02/19 21:21:03;;;;;;;;;;;;;;;5.48;100.00;102599.47;10498665;28;20294;-69
2023/02/19 21:26:06;;;;;;;;;;;;;;;5.32;100.00;102593.50;10505398;28;20375;-69
2023/02/19 21:31:08;;;;;;;;;;;;;;;5.24;100.00;102577.13;10487366;28;19928;-69
2023/02/19 21:36:11;;;;;;;;;;;;;;;5.26;100.00;102582.31;10505594;28;20000;-69
2023/02/19 21:41:13;;;;;;;;;;;;;;;5.36;100.00;102583.97;10504339;28;19939;-69
2023/02/19 21:46:18;;;;;;;;;;;;;;;5.61;100.00;102589.00;10505239;28;19924;-69
2023/02/19 21:51:26;;;;;;;;;;;;;;;5.30;100.00;102595.28;10503231;28;20337;-69
2023/02/19 21:56:29;;;;;;;;;;;;;;;5.33;100.00;102584.88;10503773;28;19924;-69
2023/02/19 22:01:32;;;;;;;;;;;;;;;5.59;100.00;102566.47;10486544;28;19948;-69
2023/02/19 22:06:34;;;;;;;;;;;;;;;5.44;100.00;102569.19;10504519;28;19930;-69
2023/02/19 22:11:37;;;;;;;;;;;;;;;5.27;100.00;102569.31;10503178;28;19991;-69
2023/02/19 22:16:39;;;;;;;;;;;;;;;5.35;100.00;102570.13;10503461;28;20384;-69
2023/02/19 22:21:42;;;;;;;;;;;;;;;5.28;100.00;102573.66;10503963;28;20019;-69
2023/02/19 22:26:44;;;;;;;;;;;;;;;5.20;100.00;102572.81;10503100;28;19925;-70
2023/02/19 22:31:47;;;;;;;;;;;;;;;5.24;100.00;102576.25;10501468;28;19979;-69
2023/02/19 22:36:49;;;;;;;;;;;;;;;5.24;100.00;102579.72;10501498;28;19933;-69
2023/02/19 22:41:51;;;;;;;;;;;;;;;5.18;100.00;102582.38;10502587;28;20015;-69
2023/02/19 22:46:54;;;;;;;;;;;;;;;5.15;100.00;102572.84;10502300;28;19925;-69
2023/02/19 22:51:57;;;;;;;;;;;;;;;5.27;100.00;102571.06;10502108;28;19932;-69
2023/02/19 22:56:59;;;;;;;;;;;;;;;5.14;100.00;102565.91;10501975;28;19974;-69
2023/02/19 23:02:02;;;;;;;;;;;;;;;5.09;100.00;102562.50;10501738;28;19925;-69
2023/02/19 23:07:04;;;;;;;;;;;;;;;5.11;100.00;102567.69;10502140;28;19928;-69
2023/02/19 23:12:10;;;;;;;;;;;;;;;5.19;100.00;102547.72;10500665;28;19975;-69
2023/02/19 23:17:12;;;;;;;;;;;;;;;5.19;100.00;102548.59;10500669;28;19924;-69
2023/02/19 23:22:14;;;;;;;;;;;;;;;5.31;100.00;102528.59;10501494;28;19975;-69
2023/02/19 23:27:16;;;;;;;;;;;;;;;5.17;100.00;102520.91;10500569;28;20359;-69
2023/02/19 23:32:19;;;;;;;;;;;;;;;5.37;100.00;102515.56;10499996;28;19928;-69
2023/02/19 23:37:22;;;;;;;;;;;;;;;5.25;100.00;102519.13;10500871;28;19933;-68
2023/02/19 23:42:24;;;;;;;;;;;;;;;5.29;100.00;102513.00;10482929;28;19924;-68
2023/02/19 23:47:27;;;;;;;;;;;;;;;5.33;100.00;102516.44;10499684;28;19925;-69
2023/02/19 23:52:31;;;;;;;;;;;;;;;5.53;100.00;102522.38;10500330;28;19932;-69
2023/02/19 23:57:34;;;;;;;;;;;;;;;5.54;100.00;102511.06;10499483;28;19925;-69
